sensor_id;sensor_type;location;lat;lon;timestamp;pressure;altitude;pressure_sealevel;temperature;humidity
6198;BME280;3132;42.622;23.328;2023-05-22T00:02:15;92586.78;;;13.86;89.13
6198;BME280;3132;42.622;23.328;2023-05-22T00:04:40;92593.25;;;14.02;87.78
6198;BME280;3132;42.622;23.328;2023-05-22T00:07:06;92584.09;;;13.99;87.41
6198;BME280;3132;42.622;23.328;2023-05-22T00:09:31;92593.13;;;14.07;88.16
6198;BME280;3132;42.622;23.328;2023-05-22T00:11:57;92601.78;;;14.29;87.45
6198;BME280;3132;42.622;23.328;2023-05-22T00:14:22;92607.72;;;14.21;88.54
6198;BME280;3132;42.622;23.328;2023-05-22T00:16:48;92587.38;;;14.05;90.39
6198;BME280;3132;42.622;23.328;2023-05-22T00:19:14;92586.25;;;13.97;91.99
6198;BME280;3132;42.622;23.328;2023-05-22T00:21:41;92604.88;;;14.09;92.46
6198;BME280;3132;42.622;23.328;2023-05-22T00:24:07;92602.94;;;13.79;94.66
6198;BME280;3132;42.622;23.328;2023-05-22T00:26:33;92596.06;;;13.83;95.64
6198;BME280;3132;42.622;23.328;2023-05-22T00:28:58;92591.44;;;13.67;96.46
6198;BME280;3132;42.622;23.328;2023-05-22T00:31:23;92562.75;;;13.70;96.06
6198;BME280;3132;42.622;23.328;2023-05-22T00:33:49;92589.94;;;13.96;95.79
6198;BME280;3132;42.622;23.328;2023-05-22T00:36:14;92577.28;;;13.54;97.47
6198;BME280;3132;42.622;23.328;2023-05-22T00:38:40;92585.13;;;13.68;97.68
6198;BME280;3132;42.622;23.328;2023-05-22T00:41:05;92581.00;;;13.75;97.48
6198;BME280;3132;42.622;23.328;2023-05-22T00:43:32;92584.97;;;13.86;97.11
6198;BME280;3132;42.622;23.328;2023-05-22T00:45:57;92585.66;;;13.78;98.24
6198;BME280;3132;42.622;23.328;2023-05-22T00:48:23;92586.69;;;13.91;96.39
6198;BME280;3132;42.622;23.328;2023-05-22T00:50:50;92589.50;;;13.94;96.05
6198;BME280;3132;42.622;23.328;2023-05-22T00:53:17;92584.47;;;13.84;96.77
6198;BME280;3132;42.622;23.328;2023-05-22T00:55:44;92595.97;;;13.75;97.84
6198;BME280;3132;42.622;23.328;2023-05-22T00:58:14;92598.75;;;13.56;97.91
6198;BME280;3132;42.622;23.328;2023-05-22T01:00:40;92595.88;;;13.44;98.97
6198;BME280;3132;42.622;23.328;2023-05-22T01:03:09;92597.06;;;13.38;100.00
6198;BME280;3132;42.622;23.328;2023-05-22T01:05:39;92601.19;;;13.31;100.00
6198;BME280;3132;42.622;23.328;2023-05-22T01:08:06;92595.19;;;13.39;100.00
6198;BME280;3132;42.622;23.328;2023-05-22T01:10:33;92596.22;;;13.16;100.00
6198;BME280;3132;42.622;23.328;2023-05-22T01:13:05;92600.28;;;13.22;100.00
6198;BME280;3132;42.622;23.328;2023-05-22T01:20:53;92594.25;;;13.35;100.00
6198;BME280;3132;42.622;23.328;2023-05-22T01:31:44;92574.28;;;13.25;100.00
6198;BME280;3132;42.622;23.328;2023-05-22T01:34:12;92566.06;;;13.40;100.00
6198;BME280;3132;42.622;23.328;2023-05-22T01:36:40;92580.75;;;13.41;100.00
6198;BME280;3132;42.622;23.328;2023-05-22T01:39:06;92559.34;;;13.12;100.00
6198;BME280;3132;42.622;23.328;2023-05-22T01:41:35;92581.69;;;12.96;100.00
6198;BME280;3132;42.622;23.328;2023-05-22T01:44:01;92555.56;;;12.91;100.00
6198;BME280;3132;42.622;23.328;2023-05-22T01:46:27;92572.06;;;12.91;100.00
6198;BME280;3132;42.622;23.328;2023-05-22T01:48:53;92559.09;;;12.73;100.00
6198;BME280;3132;42.622;23.328;2023-05-22T01:54:00;92579.94;;;12.51;100.00
6198;BME280;3132;42.622;23.328;2023-05-22T01:56:40;92573.72;;;12.47;100.00
6198;BME280;3132;42.622;23.328;2023-05-22T02:01:40;92574.88;;;12.41;100.00
6198;BME280;3132;42.622;23.328;2023-05-22T02:04:08;92564.41;;;12.41;100.00
6198;BME280;3132;42.622;23.328;2023-05-22T02:06:34;92558.59;;;12.30;100.00
6198;BME280;3132;42.622;23.328;2023-05-22T02:09:01;92573.13;;;12.36;100.00
6198;BME280;3132;42.622;23.328;2023-05-22T02:11:28;92571.53;;;12.08;100.00
6198;BME280;3132;42.622;23.328;2023-05-22T02:13:55;92575.81;;;12.18;100.00
6198;BME280;3132;42.622;23.328;2023-05-22T02:16:22;92575.03;;;12.17;100.00
6198;BME280;3132;42.622;23.328;2023-05-22T02:18:47;92587.94;;;12.14;100.00
6198;BME280;3132;42.622;23.328;2023-05-22T02:21:13;92582.22;;;12.12;100.00
6198;BME280;3132;42.622;23.328;2023-05-22T02:23:38;92573.78;;;12.01;100.00
6198;BME280;3132;42.622;23.328;2023-05-22T02:26:04;92570.88;;;12.03;100.00
6198;BME280;3132;42.622;23.328;2023-05-22T02:28:30;92575.09;;;11.99;100.00
6198;BME280;3132;42.622;23.328;2023-05-22T02:30:56;92571.09;;;11.88;100.00
6198;BME280;3132;42.622;23.328;2023-05-22T02:33:21;92575.75;;;11.91;100.00
6198;BME280;3132;42.622;23.328;2023-05-22T02:35:46;92565.72;;;11.66;100.00
6198;BME280;3132;42.622;23.328;2023-05-22T02:38:12;92576.59;;;11.73;100.00
6198;BME280;3132;42.622;23.328;2023-05-22T02:40:37;92567.78;;;11.69;100.00
6198;BME280;3132;42.622;23.328;2023-05-22T02:43:03;92560.69;;;11.51;100.00
6198;BME280;3132;42.622;23.328;2023-05-22T02:45:28;92555.63;;;11.41;100.00
6198;BME280;3132;42.622;23.328;2023-05-22T02:47:54;92556.84;;;11.62;100.00
6198;BME280;3132;42.622;23.328;2023-05-22T02:50:19;92564.69;;;11.62;100.00
6198;BME280;3132;42.622;23.328;2023-05-22T02:52:45;92566.63;;;11.75;100.00
6198;BME280;3132;42.622;23.328;2023-05-22T02:55:10;92557.41;;;11.59;100.00
6198;BME280;3132;42.622;23.328;2023-05-22T02:57:36;92559.41;;;11.67;100.00
6198;BME280;3132;42.622;23.328;2023-05-22T03:00:02;92546.34;;;11.67;100.00
6198;BME280;3132;42.622;23.328;2023-05-22T03:02:31;92554.16;;;11.99;100.00
6198;BME280;3132;42.622;23.328;2023-05-22T03:04:56;92558.50;;;11.90;100.00
6198;BME280;3132;42.622;23.328;2023-05-22T03:07:23;92564.53;;;11.90;100.00
6198;BME280;3132;42.622;23.328;2023-05-22T03:09:51;92562.22;;;12.02;100.00
6198;BME280;3132;42.622;23.328;2023-05-22T03:12:16;92565.56;;;11.89;100.00
6198;BME280;3132;42.622;23.328;2023-05-22T03:14:41;92565.34;;;12.18;100.00
6198;BME280;3132;42.622;23.328;2023-05-22T03:17:07;92573.34;;;12.53;100.00
6198;BME280;3132;42.622;23.328;2023-05-22T03:19:32;92565.59;;;12.62;100.00
6198;BME280;3132;42.622;23.328;2023-05-22T03:21:57;92567.72;;;12.73;100.00
6198;BME280;3132;42.622;23.328;2023-05-22T03:24:23;92576.56;;;12.77;100.00
6198;BME280;3132;42.622;23.328;2023-05-22T03:26:48;92568.31;;;12.84;100.00
6198;BME280;3132;42.622;23.328;2023-05-22T03:29:14;92575.09;;;12.85;100.00
6198;BME280;3132;42.622;23.328;2023-05-22T03:31:39;92573.25;;;12.72;100.00
6198;BME280;3132;42.622;23.328;2023-05-22T03:34:05;92576.81;;;12.62;100.00
6198;BME280;3132;42.622;23.328;2023-05-22T03:36:31;92559.56;;;12.75;100.00
6198;BME280;3132;42.622;23.328;2023-05-22T03:39:00;92582.16;;;13.12;100.00
6198;BME280;3132;42.622;23.328;2023-05-22T03:41:25;92583.97;;;13.38;98.55
6198;BME280;3132;42.622;23.328;2023-05-22T03:43:51;92571.28;;;13.54;96.78
6198;BME280;3132;42.622;23.328;2023-05-22T03:46:17;92581.31;;;13.74;95.82
6198;BME280;3132;42.622;23.328;2023-05-22T03:48:43;92584.84;;;13.91;95.01
6198;BME280;3132;42.622;23.328;2023-05-22T03:51:08;92584.25;;;13.94;93.21
6198;BME280;3132;42.622;23.328;2023-05-22T03:53:33;92577.41;;;14.15;92.08
6198;BME280;3132;42.622;23.328;2023-05-22T03:55:59;92578.94;;;14.38;90.62
6198;BME280;3132;42.622;23.328;2023-05-22T03:58:24;92582.38;;;14.47;90.38
6198;BME280;3132;42.622;23.328;2023-05-22T04:00:54;92575.28;;;14.48;89.53
6198;BME280;3132;42.622;23.328;2023-05-22T04:03:22;92569.09;;;14.44;88.95
6198;BME280;3132;42.622;23.328;2023-05-22T04:05:48;92582.44;;;14.56;86.34
6198;BME280;3132;42.622;23.328;2023-05-22T04:08:13;92585.00;;;14.78;87.16
6198;BME280;3132;42.622;23.328;2023-05-22T04:10:39;92587.81;;;14.82;87.12
6198;BME280;3132;42.622;23.328;2023-05-22T04:13:04;92588.22;;;15.14;87.21
6198;BME280;3132;42.622;23.328;2023-05-22T04:15:30;92588.22;;;15.14;86.13
6198;BME280;3132;42.622;23.328;2023-05-22T04:17:59;92593.00;;;15.21;84.62
6198;BME280;3132;42.622;23.328;2023-05-22T04:20:25;92593.91;;;15.08;86.59
6198;BME280;3132;42.622;23.328;2023-05-22T04:22:50;92596.41;;;15.13;87.03
6198;BME280;3132;42.622;23.328;2023-05-22T04:25:16;92594.97;;;15.07;86.85
6198;BME280;3132;42.622;23.328;2023-05-22T04:27:41;92587.94;;;15.33;87.10
6198;BME280;3132;42.622;23.328;2023-05-22T04:30:07;92597.56;;;15.63;84.32
6198;BME280;3132;42.622;23.328;2023-05-22T04:32:34;92585.78;;;15.69;83.26
6198;BME280;3132;42.622;23.328;2023-05-22T04:35:01;92607.97;;;15.76;83.53
6198;BME280;3132;42.622;23.328;2023-05-22T04:37:26;92603.31;;;15.65;85.13
6198;BME280;3132;42.622;23.328;2023-05-22T04:39:53;92608.72;;;15.60;86.73
6198;BME280;3132;42.622;23.328;2023-05-22T04:42:22;92610.72;;;15.80;85.71
6198;BME280;3132;42.622;23.328;2023-05-22T04:44:50;92565.50;;;15.27;87.85
6198;BME280;3132;42.622;23.328;2023-05-22T04:47:17;92605.78;;;15.70;86.97
6198;BME280;3132;42.622;23.328;2023-05-22T04:49:43;92602.81;;;15.97;86.52
6198;BME280;3132;42.622;23.328;2023-05-22T04:52:10;92610.59;;;16.11;85.10
6198;BME280;3132;42.622;23.328;2023-05-22T04:54:36;92603.59;;;16.23;84.70
6198;BME280;3132;42.622;23.328;2023-05-22T04:57:02;92603.41;;;16.37;84.74
6198;BME280;3132;42.622;23.328;2023-05-22T04:59:30;92606.97;;;16.49;84.31
6198;BME280;3132;42.622;23.328;2023-05-22T05:01:55;92605.03;;;16.75;83.11
6198;BME280;3132;42.622;23.328;2023-05-22T05:04:21;92611.19;;;17.17;81.86
6198;BME280;3132;42.622;23.328;2023-05-22T05:06:46;92615.50;;;18.21;76.11
6198;BME280;3132;42.622;23.328;2023-05-22T05:09:12;92617.88;;;18.67;73.64
6198;BME280;3132;42.622;23.328;2023-05-22T05:11:37;92620.97;;;18.69;74.54
6198;BME280;3132;42.622;23.328;2023-05-22T05:14:03;92610.75;;;18.79;73.14
6198;BME280;3132;42.622;23.328;2023-05-22T05:16:28;92622.66;;;18.41;74.08
6198;BME280;3132;42.622;23.328;2023-05-22T05:18:53;92619.88;;;18.17;75.51
6198;BME280;3132;42.622;23.328;2023-05-22T05:21:20;92616.16;;;19.07;72.42
6198;BME280;3132;42.622;23.328;2023-05-22T05:23:46;92640.44;;;19.93;66.40
6198;BME280;3132;42.622;23.328;2023-05-22T05:26:11;92629.84;;;19.69;66.79
6198;BME280;3132;42.622;23.328;2023-05-22T05:28:37;92629.22;;;19.48;66.59
6198;BME280;3132;42.622;23.328;2023-05-22T05:31:02;92593.38;;;19.39;66.75
6198;BME280;3132;42.622;23.328;2023-05-22T05:33:28;92636.94;;;20.29;63.11
6198;BME280;3132;42.622;23.328;2023-05-22T05:35:54;92621.50;;;19.67;65.05
6198;BME280;3132;42.622;23.328;2023-05-22T05:38:19;92634.38;;;20.32;62.36
6198;BME280;3132;42.622;23.328;2023-05-22T05:40:45;92637.66;;;21.93;56.45
6198;BME280;3132;42.622;23.328;2023-05-22T05:43:11;92638.88;;;25.80;44.82
6198;BME280;3132;42.622;23.328;2023-05-22T05:45:39;92644.28;;;25.84;43.00
6198;BME280;3132;42.622;23.328;2023-05-22T05:48:05;92649.50;;;24.89;44.00
6198;BME280;3132;42.622;23.328;2023-05-22T05:50:30;92640.31;;;22.28;48.49
6198;BME280;3132;42.622;23.328;2023-05-22T05:52:56;92640.56;;;22.04;51.55
6198;BME280;3132;42.622;23.328;2023-05-22T05:55:22;92628.28;;;21.65;52.94
6198;BME280;3132;42.622;23.328;2023-05-22T05:57:47;92638.13;;;21.64;55.04
6198;BME280;3132;42.622;23.328;2023-05-22T06:00:13;92650.25;;;26.17;43.14
6198;BME280;3132;42.622;23.328;2023-05-22T06:02:38;92661.41;;;30.08;32.46
6198;BME280;3132;42.622;23.328;2023-05-22T06:05:04;92665.13;;;31.59;28.24
6198;BME280;3132;42.622;23.328;2023-05-22T06:07:30;92655.84;;;32.98;26.47
6198;BME280;3132;42.622;23.328;2023-05-22T06:09:57;92660.88;;;31.88;27.88
6198;BME280;3132;42.622;23.328;2023-05-22T06:12:23;92650.16;;;29.68;30.68
6198;BME280;3132;42.622;23.328;2023-05-22T06:14:48;92669.63;;;30.38;29.92
6198;BME280;3132;42.622;23.328;2023-05-22T06:17:14;92667.59;;;31.46;27.04
6198;BME280;3132;42.622;23.328;2023-05-22T06:19:40;92672.81;;;31.00;28.37
6198;BME280;3132;42.622;23.328;2023-05-22T06:22:06;92663.28;;;30.92;28.12
6198;BME280;3132;42.622;23.328;2023-05-22T06:24:31;92651.56;;;27.55;31.97
6198;BME280;3132;42.622;23.328;2023-05-22T06:26:58;92660.75;;;27.50;32.12
6198;BME280;3132;42.622;23.328;2023-05-22T06:29:23;92654.19;;;28.32;31.37
6198;BME280;3132;42.622;23.328;2023-05-22T06:31:49;92659.91;;;28.59;30.04
6198;BME280;3132;42.622;23.328;2023-05-22T06:34:14;92652.31;;;27.48;31.36
6198;BME280;3132;42.622;23.328;2023-05-22T06:36:40;92636.88;;;25.23;35.64
6198;BME280;3132;42.622;23.328;2023-05-22T06:39:06;92634.31;;;24.64;37.14
6198;BME280;3132;42.622;23.328;2023-05-22T06:41:32;92640.03;;;24.07;39.09
6198;BME280;3132;42.622;23.328;2023-05-22T06:44:00;92640.25;;;23.23;37.90
6198;BME280;3132;42.622;23.328;2023-05-22T06:46:26;92642.22;;;22.66;40.48
6198;BME280;3132;42.622;23.328;2023-05-22T06:48:52;92641.22;;;22.36;42.69
6198;BME280;3132;42.622;23.328;2023-05-22T06:51:19;92635.56;;;21.68;42.67
6198;BME280;3132;42.622;23.328;2023-05-22T06:53:44;92633.97;;;21.48;43.98
6198;BME280;3132;42.622;23.328;2023-05-22T06:56:10;92634.28;;;21.62;43.50
6198;BME280;3132;42.622;23.328;2023-05-22T06:58:35;92631.63;;;21.77;41.41
6198;BME280;3132;42.622;23.328;2023-05-22T07:01:01;92640.63;;;21.42;42.41
6198;BME280;3132;42.622;23.328;2023-05-22T07:03:26;92641.31;;;21.39;42.45
6198;BME280;3132;42.622;23.328;2023-05-22T07:05:53;92640.47;;;21.04;45.55
6198;BME280;3132;42.622;23.328;2023-05-22T07:08:21;92638.25;;;21.06;44.48
6198;BME280;3132;42.622;23.328;2023-05-22T07:10:47;92630.25;;;20.62;45.67
6198;BME280;3132;42.622;23.328;2023-05-22T07:13:12;92634.03;;;21.05;45.23
6198;BME280;3132;42.622;23.328;2023-05-22T07:15:38;92643.03;;;21.47;45.76
6198;BME280;3132;42.622;23.328;2023-05-22T07:18:03;92630.28;;;21.52;45.04
6198;BME280;3132;42.622;23.328;2023-05-22T07:20:30;92637.72;;;21.16;44.92
6198;BME280;3132;42.622;23.328;2023-05-22T07:22:55;92639.78;;;21.38;46.07
6198;BME280;3132;42.622;23.328;2023-05-22T07:25:22;92640.09;;;21.83;42.93
6198;BME280;3132;42.622;23.328;2023-05-22T07:27:47;92640.50;;;22.00;44.33
6198;BME280;3132;42.622;23.328;2023-05-22T07:30:13;92641.91;;;22.13;41.94
6198;BME280;3132;42.622;23.328;2023-05-22T07:32:38;92636.63;;;21.98;44.52
6198;BME280;3132;42.622;23.328;2023-05-22T07:35:04;92630.28;;;20.78;47.20
6198;BME280;3132;42.622;23.328;2023-05-22T07:37:31;92638.66;;;21.23;47.10
6198;BME280;3132;42.622;23.328;2023-05-22T07:39:57;92630.53;;;21.01;47.31
6198;BME280;3132;42.622;23.328;2023-05-22T07:42:22;92632.59;;;21.23;45.22
6198;BME280;3132;42.622;23.328;2023-05-22T07:44:48;92633.03;;;20.82;46.99
6198;BME280;3132;42.622;23.328;2023-05-22T07:47:13;92635.41;;;20.55;47.95
6198;BME280;3132;42.622;23.328;2023-05-22T07:49:38;92630.22;;;20.07;50.50
6198;BME280;3132;42.622;23.328;2023-05-22T07:52:04;92633.22;;;20.45;50.75
6198;BME280;3132;42.622;23.328;2023-05-22T07:54:29;92628.88;;;20.25;49.48
6198;BME280;3132;42.622;23.328;2023-05-22T07:56:55;92633.03;;;20.82;50.40
6198;BME280;3132;42.622;23.328;2023-05-22T07:59:21;92635.75;;;21.13;48.23
6198;BME280;3132;42.622;23.328;2023-05-22T08:01:48;92631.63;;;20.56;50.55
6198;BME280;3132;42.622;23.328;2023-05-22T08:04:14;92636.16;;;20.28;52.50
6198;BME280;3132;42.622;23.328;2023-05-22T08:06:40;92632.59;;;20.36;51.74
6198;BME280;3132;42.622;23.328;2023-05-22T08:09:05;92633.66;;;20.47;53.15
6198;BME280;3132;42.622;23.328;2023-05-22T08:11:31;92634.03;;;19.82;53.96
6198;BME280;3132;42.622;23.328;2023-05-22T08:13:56;92627.22;;;20.21;53.99
6198;BME280;3132;42.622;23.328;2023-05-22T08:16:22;92634.13;;;20.37;52.66
6198;BME280;3132;42.622;23.328;2023-05-22T08:18:48;92631.00;;;20.20;52.03
6198;BME280;3132;42.622;23.328;2023-05-22T08:21:13;92628.28;;;19.80;51.87
6198;BME280;3132;42.622;23.328;2023-05-22T08:23:39;92621.25;;;19.84;54.25
6198;BME280;3132;42.622;23.328;2023-05-22T08:26:05;92633.94;;;20.30;53.35
6198;BME280;3132;42.622;23.328;2023-05-22T08:28:32;92629.50;;;20.34;52.40
6198;BME280;3132;42.622;23.328;2023-05-22T08:30:58;92629.66;;;20.53;53.44
6198;BME280;3132;42.622;23.328;2023-05-22T08:33:23;92637.81;;;20.60;50.83
6198;BME280;3132;42.622;23.328;2023-05-22T08:35:49;92636.06;;;20.52;55.92
6198;BME280;3132;42.622;23.328;2023-05-22T08:38:14;92624.16;;;20.46;54.37
6198;BME280;3132;42.622;23.328;2023-05-22T08:40:41;92628.88;;;20.25;53.71
6198;BME280;3132;42.622;23.328;2023-05-22T08:43:06;92632.59;;;20.36;55.55
6198;BME280;3132;42.622;23.328;2023-05-22T08:45:32;92628.56;;;20.98;50.00
6198;BME280;3132;42.622;23.328;2023-05-22T08:48:00;92626.44;;;20.32;53.29
6198;BME280;3132;42.622;23.328;2023-05-22T08:50:29;92631.03;;;20.63;49.88
6198;BME280;3132;42.622;23.328;2023-05-22T08:52:55;92621.69;;;20.53;49.68
6198;BME280;3132;42.622;23.328;2023-05-22T08:55:24;92626.53;;;20.63;49.36
6198;BME280;3132;42.622;23.328;2023-05-22T08:57:50;92629.16;;;21.38;50.28
6198;BME280;3132;42.622;23.328;2023-05-22T09:00:16;92630.66;;;21.70;48.46
6198;BME280;3132;42.622;23.328;2023-05-22T09:02:42;92639.81;;;22.03;44.08
6198;BME280;3132;42.622;23.328;2023-05-22T09:05:08;92625.66;;;22.18;40.15
6198;BME280;3132;42.622;23.328;2023-05-22T09:07:34;92622.09;;;22.11;42.34
6198;BME280;3132;42.622;23.328;2023-05-22T09:10:02;92626.06;;;22.01;40.93
6198;BME280;3132;42.622;23.328;2023-05-22T09:12:30;92629.97;;;21.88;38.46
6198;BME280;3132;42.622;23.328;2023-05-22T09:14:56;92609.34;;;21.66;38.10
6198;BME280;3132;42.622;23.328;2023-05-22T09:17:27;92608.81;;;22.11;40.52
6198;BME280;3132;42.622;23.328;2023-05-22T09:19:52;92610.56;;;22.80;40.46
6198;BME280;3132;42.622;23.328;2023-05-22T09:22:18;92621.38;;;22.90;38.73
6198;BME280;3132;42.622;23.328;2023-05-22T09:24:44;92620.50;;;23.05;39.29
6198;BME280;3132;42.622;23.328;2023-05-22T09:27:11;92630.38;;;22.82;37.97
6198;BME280;3132;42.622;23.328;2023-05-22T09:29:56;92628.09;;;23.03;36.94
6198;BME280;3132;42.622;23.328;2023-05-22T09:32:22;92623.22;;;23.09;37.99
6198;BME280;3132;42.622;23.328;2023-05-22T09:34:48;92622.53;;;22.89;38.77
6198;BME280;3132;42.622;23.328;2023-05-22T09:37:14;92620.41;;;22.79;37.59
6198;BME280;3132;42.622;23.328;2023-05-22T09:39:44;92624.03;;;22.68;37.66
6198;BME280;3132;42.622;23.328;2023-05-22T09:42:11;92619.06;;;22.66;38.46
6198;BME280;3132;42.622;23.328;2023-05-22T09:44:39;92612.72;;;22.17;38.81
6198;BME280;3132;42.622;23.328;2023-05-22T09:47:07;92622.53;;;22.13;41.30
6198;BME280;3132;42.622;23.328;2023-05-22T09:49:40;92628.41;;;22.22;41.24
6198;BME280;3132;42.622;23.328;2023-05-22T09:52:07;92634.31;;;22.50;39.20
6198;BME280;3132;42.622;23.328;2023-05-22T09:54:34;92623.28;;;22.13;40.33
6198;BME280;3132;42.622;23.328;2023-05-22T09:57:00;92631.78;;;21.84;40.29
6198;BME280;3132;42.622;23.328;2023-05-22T09:59:28;92620.00;;;21.51;40.03
6198;BME280;3132;42.622;23.328;2023-05-22T10:01:55;92632.72;;;21.61;40.67
6198;BME280;3132;42.622;23.328;2023-05-22T10:04:22;92627.94;;;21.66;40.76
6198;BME280;3132;42.622;23.328;2023-05-22T10:06:52;92622.28;;;21.83;40.98
6198;BME280;3132;42.622;23.328;2023-05-22T10:09:22;92630.94;;;22.34;39.97
6198;BME280;3132;42.622;23.328;2023-05-22T10:11:52;92619.94;;;22.36;39.95
6198;BME280;3132;42.622;23.328;2023-05-22T10:14:19;92630.34;;;22.60;39.69
6198;BME280;3132;42.622;23.328;2023-05-22T10:16:44;92612.81;;;22.59;38.02
6198;BME280;3132;42.622;23.328;2023-05-22T10:19:11;92621.47;;;22.75;39.01
6198;BME280;3132;42.622;23.328;2023-05-22T10:21:38;92626.28;;;22.88;38.51
6198;BME280;3132;42.622;23.328;2023-05-22T10:24:05;92625.41;;;22.81;39.94
6198;BME280;3132;42.622;23.328;2023-05-22T10:26:31;92621.63;;;22.82;38.95
6198;BME280;3132;42.622;23.328;2023-05-22T10:29:06;92625.97;;;22.33;40.55
6198;BME280;3132;42.622;23.328;2023-05-22T10:34:19;92611.66;;;21.68;41.36
6198;BME280;3132;42.622;23.328;2023-05-22T10:36:58;92624.78;;;20.99;45.75
6198;BME280;3132;42.622;23.328;2023-05-22T10:39:42;92618.97;;;20.65;49.28
6198;BME280;3132;42.622;23.328;2023-05-22T10:42:12;92626.47;;;19.69;56.46
6198;BME280;3132;42.622;23.328;2023-05-22T10:44:38;92633.16;;;19.06;59.40
6198;BME280;3132;42.622;23.328;2023-05-22T10:47:08;92633.84;;;18.58;63.71
6198;BME280;3132;42.622;23.328;2023-05-22T10:49:35;92632.00;;;17.77;74.58
6198;BME280;3132;42.622;23.328;2023-05-22T10:52:02;92623.06;;;17.69;79.09
6198;BME280;3132;42.622;23.328;2023-05-22T10:54:44;92633.34;;;17.83;75.64
6198;BME280;3132;42.622;23.328;2023-05-22T10:57:12;92619.69;;;18.42;74.45
6198;BME280;3132;42.622;23.328;2023-05-22T10:59:38;92627.88;;;19.06;68.00
6198;BME280;3132;42.622;23.328;2023-05-22T11:02:05;92631.00;;;19.56;63.73
6198;BME280;3132;42.622;23.328;2023-05-22T11:04:31;92625.13;;;19.63;65.81
6198;BME280;3132;42.622;23.328;2023-05-22T11:07:03;92615.09;;;18.63;65.70
6198;BME280;3132;42.622;23.328;2023-05-22T11:09:32;92621.06;;;19.29;64.95
6198;BME280;3132;42.622;23.328;2023-05-22T11:12:30;92615.09;;;19.44;65.97
6198;BME280;3132;42.622;23.328;2023-05-22T11:14:57;92617.84;;;19.48;68.22
6198;BME280;3132;42.622;23.328;2023-05-22T11:17:29;92609.84;;;18.43;67.53
6198;BME280;3132;42.622;23.328;2023-05-22T11:24:56;92617.50;;;18.03;92.89
6198;BME280;3132;42.622;23.328;2023-05-22T11:27:21;92624.22;;;18.01;96.28
6198;BME280;3132;42.622;23.328;2023-05-22T11:29:47;92639.03;;;17.93;91.19
6198;BME280;3132;42.622;23.328;2023-05-22T11:32:13;92647.72;;;17.73;90.84
6198;BME280;3132;42.622;23.328;2023-05-22T11:34:45;92648.06;;;17.34;95.53
6198;BME280;3132;42.622;23.328;2023-05-22T11:37:11;92658.06;;;17.20;96.86
6198;BME280;3132;42.622;23.328;2023-05-22T11:39:37;92657.06;;;16.95;97.16
6198;BME280;3132;42.622;23.328;2023-05-22T11:42:02;92663.06;;;16.41;100.00
6198;BME280;3132;42.622;23.328;2023-05-22T11:44:29;92668.50;;;17.08;93.46
6198;BME280;3132;42.622;23.328;2023-05-22T11:46:54;92672.78;;;16.83;92.15
6198;BME280;3132;42.622;23.328;2023-05-22T11:49:21;92673.75;;;16.70;92.61
6198;BME280;3132;42.622;23.328;2023-05-22T11:51:48;92670.69;;;16.17;93.89
6198;BME280;3132;42.622;23.328;2023-05-22T11:54:16;92671.75;;;16.50;97.78
6198;BME280;3132;42.622;23.328;2023-05-22T11:56:42;92678.69;;;16.72;97.33
6198;BME280;3132;42.622;23.328;2023-05-22T11:59:07;92677.97;;;16.37;93.92
6198;BME280;3132;42.622;23.328;2023-05-22T12:01:33;92677.81;;;16.08;96.29
6198;BME280;3132;42.622;23.328;2023-05-22T12:04:00;92656.66;;;15.40;100.00
6198;BME280;3132;42.622;23.328;2023-05-22T12:06:26;92652.56;;;15.73;97.93
6198;BME280;3132;42.622;23.328;2023-05-22T12:08:51;92640.47;;;15.63;100.00
6198;BME280;3132;42.622;23.328;2023-05-22T12:11:17;92634.94;;;15.26;100.00
6198;BME280;3132;42.622;23.328;2023-05-22T12:13:42;92646.72;;;15.37;100.00
6198;BME280;3132;42.622;23.328;2023-05-22T12:16:18;92638.22;;;15.31;98.08
6198;BME280;3132;42.622;23.328;2023-05-22T12:18:45;92648.81;;;15.09;99.48
6198;BME280;3132;42.622;23.328;2023-05-22T12:21:11;92646.50;;;15.08;100.00
6198;BME280;3132;42.622;23.328;2023-05-22T12:23:46;92632.97;;;15.40;97.79
6198;BME280;3132;42.622;23.328;2023-05-22T12:26:12;92642.13;;;15.51;99.33
6198;BME280;3132;42.622;23.328;2023-05-22T12:28:37;92637.22;;;15.75;98.26
6198;BME280;3132;42.622;23.328;2023-05-22T12:31:03;92631.31;;;16.21;95.97
6198;BME280;3132;42.622;23.328;2023-05-22T12:33:29;92637.97;;;16.52;94.76
6198;BME280;3132;42.622;23.328;2023-05-22T12:35:56;92618.03;;;16.80;94.77
6198;BME280;3132;42.622;23.328;2023-05-22T12:38:26;92624.22;;;16.84;93.81
6198;BME280;3132;42.622;23.328;2023-05-22T12:40:52;92633.91;;;17.47;92.29
6198;BME280;3132;42.622;23.328;2023-05-22T12:43:20;92624.69;;;17.53;91.42
6198;BME280;3132;42.622;23.328;2023-05-22T12:45:46;92623.56;;;17.83;89.16
6198;BME280;3132;42.622;23.328;2023-05-22T12:48:12;92620.97;;;17.75;87.03
6198;BME280;3132;42.622;23.328;2023-05-22T12:50:37;92622.16;;;17.86;84.31
6198;BME280;3132;42.622;23.328;2023-05-22T12:53:03;92611.72;;;18.10;85.25
6198;BME280;3132;42.622;23.328;2023-05-22T12:55:29;92617.88;;;18.14;84.83
6198;BME280;3132;42.622;23.328;2023-05-22T12:57:55;92615.84;;;18.52;83.07
6198;BME280;3132;42.622;23.328;2023-05-22T13:00:21;92605.94;;;18.49;81.17
6198;BME280;3132;42.622;23.328;2023-05-22T13:02:47;92615.09;;;18.63;80.27
6198;BME280;3132;42.622;23.328;2023-05-22T13:05:12;92607.72;;;18.04;80.68
6198;BME280;3132;42.622;23.328;2023-05-22T13:07:38;92609.53;;;17.41;83.21
6198;BME280;3132;42.622;23.328;2023-05-22T13:10:04;92611.44;;;18.03;80.17
6198;BME280;3132;42.622;23.328;2023-05-22T13:12:30;92602.06;;;18.46;81.18
6198;BME280;3132;42.622;23.328;2023-05-22T13:14:59;92600.81;;;18.64;74.78
6198;BME280;3132;42.622;23.328;2023-05-22T13:17:25;92612.69;;;18.58;75.95
6198;BME280;3132;42.622;23.328;2023-05-22T13:19:53;92614.56;;;18.70;75.06
6198;BME280;3132;42.622;23.328;2023-05-22T13:22:19;92617.88;;;18.79;76.47
6198;BME280;3132;42.622;23.328;2023-05-22T13:24:44;92608.09;;;18.79;74.27
6198;BME280;3132;42.622;23.328;2023-05-22T13:27:10;92598.31;;;18.92;76.26
6198;BME280;3132;42.622;23.328;2023-05-22T13:29:35;92597.63;;;18.83;72.52
6198;BME280;3132;42.622;23.328;2023-05-22T13:32:01;92593.78;;;18.92;68.46
6198;BME280;3132;42.622;23.328;2023-05-22T13:34:27;92590.03;;;18.93;69.20